Batesville, Arkansas
Current Conditions -  °F | °C
As of 11:15 AM on Friday 28 Nov 2014 (Local Time) from KBVX Reporting Station
Clear Clear  
Wind Chill:   Ceiling: Unl
Heat Index:   Visibility: 10mi
Dew Point: -1°   Wind: 12mph
Humidity: 50%   Direction: 210°SSW
Pressure: 30.26"   Gusts: NA
Location:  35.77°N, 91.65°W
Report Text: KBVX 281715Z AUTO 21010KT 10SM CLR 09/M01 A3026 RMK AO1
Loading
Personal Weather Stations






























Interactive Weather Map New forecast layout! Learn more

10-Day Weather Forecast

Advertisements
Track Severe Weather on mobile